createdAt,value
2022-09-25T00:02:09.668Z,19.20
2022-09-25T00:04:37.786Z,18.35
2022-09-25T00:07:06.133Z,17.70
2022-09-25T00:09:34.412Z,17.27
2022-09-25T00:12:02.732Z,16.48
2022-09-25T00:14:31.084Z,16.77
2022-09-25T00:16:59.185Z,16.50
2022-09-25T00:19:46.066Z,15.73
2022-09-25T00:22:14.062Z,15.25
2022-09-25T00:24:42.298Z,15.30
2022-09-25T00:27:10.521Z,15.48
2022-09-25T00:29:40.290Z,15.48
2022-09-25T00:32:10.502Z,14.25
2022-09-25T00:34:40.793Z,14.90
2022-09-25T00:37:09.071Z,13.18
2022-09-25T00:39:37.620Z,13.77
2022-09-25T00:42:05.793Z,13.95
2022-09-25T00:44:57.687Z,13.13
2022-09-25T00:47:32.228Z,13.18
2022-09-25T00:50:06.115Z,12.43
2022-09-25T00:52:34.119Z,12.38
2022-09-25T00:55:05.923Z,12.48
2022-09-25T00:57:36.338Z,11.50
2022-09-25T01:00:09.666Z,11.30
2022-09-25T01:02:40.119Z,11.38
2022-09-25T01:05:12.777Z,11.60
2022-09-25T01:07:44.926Z,11.40
2022-09-25T01:10:14.691Z,11.23
2022-09-25T01:12:45.917Z,11.43
2022-09-25T01:15:17.548Z,10.32
2022-09-25T01:17:56.399Z,10.98
2022-09-25T01:20:41.760Z,10.73
2022-09-25T01:23:18.419Z,11.00
2022-09-25T01:26:01.318Z,11.38
2022-09-25T01:29:00.726Z,11.07
2022-09-25T01:31:36.541Z,11.48
2022-09-25T01:34:11.482Z,12.10
2022-09-25T01:36:48.930Z,12.65
2022-09-25T01:39:21.747Z,12.80
2022-09-25T01:41:56.846Z,12.18
2022-09-25T01:44:32.654Z,11.85
2022-09-25T01:47:08.926Z,11.93
2022-09-25T01:49:41.664Z,12.90
2022-09-25T01:52:15.742Z,12.10
2022-09-25T01:54:47.514Z,13.00
2022-09-25T01:57:21.201Z,11.43
2022-09-25T01:59:55.578Z,12.70
2022-09-25T02:02:29.890Z,12.23
2022-09-25T02:05:05.876Z,11.52
2022-09-25T02:07:38.286Z,11.27
2022-09-25T02:10:11.929Z,12.68
2022-09-25T02:12:47.067Z,12.27
2022-09-25T02:15:20.840Z,11.85
2022-09-25T02:18:11.818Z,12.27
2022-09-25T02:20:42.468Z,12.15
2022-09-25T02:23:19.060Z,11.57
2022-09-25T02:25:53.073Z,11.23
2022-09-25T02:28:21.726Z,9.85
2022-09-25T02:30:55.281Z,10.40
2022-09-25T02:33:23.670Z,10.32
2022-09-25T02:35:51.865Z,9.88
2022-09-25T02:38:20.232Z,9.95
2022-09-25T02:40:53.764Z,9.20
2022-09-25T02:43:34.211Z,9.70
2022-09-25T02:46:12.956Z,9.57
2022-09-25T02:48:51.969Z,9.50
2022-09-25T02:51:27.074Z,8.38
2022-09-25T02:54:05.907Z,8.73
2022-09-25T02:56:38.457Z,7.03
2022-09-25T02:59:10.268Z,7.75
2022-09-25T03:01:42.921Z,7.35
2022-09-25T03:04:12.185Z,7.03
2022-09-25T03:06:43.113Z,6.10
2022-09-25T03:09:15.204Z,5.50
2022-09-25T03:11:43.737Z,5.93
2022-09-25T03:14:12.500Z,5.63
2022-09-25T03:16:48.039Z,5.60
2022-09-25T03:19:16.982Z,5.50
2022-09-25T03:21:45.014Z,6.35
2022-09-25T03:24:13.463Z,5.57
2022-09-25T03:26:42.937Z,6.25
2022-09-25T03:29:12.867Z,6.03
2022-09-25T03:31:42.940Z,5.88
2022-09-25T03:34:13.004Z,5.95
2022-09-25T03:36:41.641Z,5.80
2022-09-25T03:39:15.085Z,5.13
2022-09-25T03:41:44.809Z,5.38
2022-09-25T03:44:13.176Z,6.03
2022-09-25T03:46:44.029Z,5.50
2022-09-25T03:49:12.883Z,6.25
2022-09-25T03:51:42.781Z,6.75
2022-09-25T03:54:10.962Z,6.72
2022-09-25T03:56:39.255Z,6.68
2022-09-25T03:59:07.656Z,6.93
2022-09-25T04:01:36.991Z,7.40
2022-09-25T04:04:06.509Z,6.82
2022-09-25T04:06:36.872Z,6.80
2022-09-25T04:09:05.250Z,7.15
2022-09-25T04:11:33.192Z,7.75
2022-09-25T04:14:01.585Z,8.13
2022-09-25T04:16:31.467Z,8.05
2022-09-25T04:19:02.198Z,9.05
2022-09-25T04:21:31.787Z,8.13
2022-09-25T04:24:18.289Z,8.27
2022-09-25T04:26:46.905Z,8.77
2022-09-25T04:29:16.304Z,10.30
2022-09-25T04:32:05.007Z,9.43
2022-09-25T04:34:32.198Z,9.27
2022-09-25T04:37:02.556Z,8.63
2022-09-25T04:39:30.794Z,8.68
2022-09-25T04:41:58.773Z,9.23
2022-09-25T04:44:27.690Z,11.10
2022-09-25T04:46:55.723Z,11.57
2022-09-25T04:49:23.915Z,10.55
2022-09-25T04:51:51.969Z,10.40
2022-09-25T04:54:23.250Z,8.57
2022-09-25T04:56:52.779Z,8.50
2022-09-25T04:59:22.034Z,8.00
2022-09-25T05:01:53.605Z,7.65
2022-09-25T05:04:22.578Z,7.57
2022-09-25T05:06:51.643Z,7.53
2022-09-25T05:09:21.092Z,7.97
2022-09-25T05:11:49.138Z,7.93
2022-09-25T05:14:17.495Z,7.57
2022-09-25T05:16:47.948Z,7.88
2022-09-25T05:19:17.297Z,8.32
2022-09-25T05:21:47.190Z,7.45
2022-09-25T05:24:15.332Z,7.28
2022-09-25T05:26:47.702Z,7.05
2022-09-25T05:29:16.301Z,6.53
2022-09-25T05:31:51.457Z,6.65
2022-09-25T05:34:20.105Z,5.95
2022-09-25T05:36:49.262Z,5.53
2022-09-25T05:39:23.295Z,5.35
2022-09-25T05:41:53.745Z,5.88
2022-09-25T05:44:26.458Z,5.50
2022-09-25T05:47:00.217Z,5.20
2022-09-25T05:49:32.347Z,5.95
2022-09-25T05:52:00.852Z,5.23
2022-09-25T05:54:33.431Z,5.50
2022-09-25T05:57:05.856Z,5.43
2022-09-25T05:59:40.155Z,5.70
2022-09-25T06:02:12.677Z,6.00
2022-09-25T06:04:41.065Z,6.22
2022-09-25T06:07:10.155Z,6.53
2022-09-25T06:09:45.626Z,6.20
2022-09-25T06:12:19.834Z,6.00
2022-09-25T06:14:49.856Z,6.35
2022-09-25T06:17:20.402Z,5.78
2022-09-25T06:19:49.405Z,5.88
2022-09-25T06:22:19.063Z,6.15
2022-09-25T06:24:49.772Z,6.07
2022-09-25T06:27:19.504Z,6.35
2022-09-25T06:29:48.142Z,6.18
2022-09-25T06:32:17.359Z,6.22
2022-09-25T06:34:47.002Z,6.30
2022-09-25T06:37:15.069Z,6.97
2022-09-25T06:39:43.403Z,6.45
2022-09-25T06:42:11.527Z,5.53
2022-09-25T06:44:41.514Z,6.32
2022-09-25T06:47:14.926Z,5.75
2022-09-25T06:49:47.509Z,5.28
2022-09-25T06:52:16.182Z,5.80
2022-09-25T06:54:45.336Z,5.45
2022-09-25T06:57:16.207Z,5.40
2022-09-25T06:59:51.421Z,5.50
2022-09-25T07:02:37.571Z,5.68
2022-09-25T07:05:06.822Z,5.68
2022-09-25T07:07:35.075Z,6.25
2022-09-25T07:10:03.380Z,5.32
2022-09-25T07:12:34.428Z,6.07
2022-09-25T07:15:04.420Z,5.97
2022-09-25T07:17:33.916Z,8.25
2022-09-25T07:20:03.727Z,5.97
2022-09-25T07:22:32.270Z,5.60
2022-09-25T07:25:00.907Z,6.47
2022-09-25T07:27:29.308Z,5.82
2022-09-25T07:30:00.170Z,5.80
2022-09-25T07:32:31.841Z,5.60
2022-09-25T07:35:04.579Z,5.82
2022-09-25T07:37:32.784Z,6.03
2022-09-25T07:40:02.144Z,6.10
2022-09-25T07:42:31.173Z,5.75
2022-09-25T07:45:00.060Z,6.07
2022-09-25T07:47:30.624Z,5.60
2022-09-25T07:50:01.911Z,5.93
2022-09-25T07:52:30.885Z,6.43
2022-09-25T07:54:59.667Z,6.00
2022-09-25T07:57:30.205Z,5.80
2022-09-25T07:59:59.859Z,7.10
2022-09-25T08:02:29.844Z,6.15
2022-09-25T08:04:58.490Z,6.53
2022-09-25T08:07:29.086Z,6.95
2022-09-25T08:10:00.129Z,6.00
2022-09-25T08:12:29.160Z,5.82
2022-09-25T08:14:58.485Z,6.90
2022-09-25T08:17:31.924Z,6.65
2022-09-25T08:20:03.278Z,8.50
2022-09-25T08:22:31.903Z,7.25
2022-09-25T08:25:02.485Z,6.70
2022-09-25T08:27:31.457Z,6.65
2022-09-25T08:29:59.955Z,6.50
2022-09-25T08:32:28.949Z,6.45
2022-09-25T08:35:05.182Z,7.10
2022-09-25T08:37:37.106Z,6.82
2022-09-25T08:40:08.215Z,7.57
2022-09-25T08:42:39.947Z,9.15
2022-09-25T08:45:37.771Z,7.18
2022-09-25T08:48:24.663Z,6.88
2022-09-25T08:50:58.037Z,6.43
2022-09-25T08:53:31.779Z,6.75
2022-09-25T08:56:18.098Z,6.60
2022-09-25T08:58:52.741Z,6.45
2022-09-25T09:01:28.694Z,7.30
2022-09-25T09:04:07.781Z,5.25
2022-09-25T09:06:53.323Z,7.07
2022-09-25T09:09:37.978Z,7.70
2022-09-25T09:12:18.847Z,7.70
2022-09-25T09:14:55.981Z,9.07
2022-09-25T09:17:33.175Z,9.63
2022-09-25T09:20:29.012Z,8.65
2022-09-25T09:23:15.552Z,8.60
2022-09-25T09:25:51.225Z,8.45
2022-09-25T09:28:40.102Z,10.70
2022-09-25T09:31:19.664Z,11.27
2022-09-25T09:33:57.612Z,11.55
2022-09-25T09:36:34.533Z,12.93
2022-09-25T09:39:17.669Z,13.88
2022-09-25T09:42:00.653Z,13.70
2022-09-25T09:44:44.268Z,13.38
2022-09-25T09:47:29.932Z,12.50
2022-09-25T09:50:13.442Z,12.40
2022-09-25T09:52:46.034Z,13.23
2022-09-25T09:55:26.347Z,11.27
2022-09-25T09:57:56.658Z,12.43
2022-09-25T10:00:25.862Z,12.07
2022-09-25T10:03:00.691Z,10.95
2022-09-25T10:05:33.834Z,10.95
2022-09-25T10:08:06.497Z,10.40
2022-09-25T10:10:38.439Z,9.95
2022-09-25T10:13:14.444Z,13.93
2022-09-25T10:15:52.228Z,9.15
2022-09-25T10:18:23.453Z,8.35
2022-09-25T10:20:59.758Z,7.65
2022-09-25T10:23:53.227Z,8.15
2022-09-25T10:29:01.423Z,9.25
2022-09-25T10:31:32.338Z,10.00
2022-09-25T10:34:04.217Z,9.55
2022-09-25T10:36:42.105Z,10.82
2022-09-25T10:39:44.550Z,11.43
2022-09-25T10:42:40.331Z,8.57
2022-09-25T10:45:32.971Z,7.70
2022-09-25T10:48:20.533Z,8.95
2022-09-25T10:51:09.914Z,9.10
2022-09-25T10:53:45.960Z,8.98
2022-09-25T10:56:21.705Z,8.63
2022-09-25T10:58:57.763Z,9.57
2022-09-25T11:01:35.593Z,9.75
2022-09-25T11:04:11.030Z,8.32
2022-09-25T11:06:47.585Z,8.15
2022-09-25T11:09:19.557Z,7.50
2022-09-25T11:11:52.768Z,9.02
2022-09-25T11:17:10.384Z,9.07
2022-09-25T11:19:40.819Z,9.93
2022-09-25T11:22:18.708Z,10.07
2022-09-25T11:25:01.842Z,10.15
2022-09-25T11:27:41.307Z,10.88
2022-09-25T11:30:16.545Z,11.18
2022-09-25T11:32:52.580Z,11.88
2022-09-25T11:35:35.403Z,11.88
2022-09-25T11:38:14.279Z,11.52
2022-09-25T11:41:13.313Z,10.07
2022-09-25T11:44:02.630Z,11.05
2022-09-25T11:46:43.831Z,10.20
2022-09-25T11:49:19.700Z,9.55
2022-09-25T11:52:20.958Z,8.40
2022-09-25T11:55:20.932Z,8.57
2022-09-25T11:57:58.889Z,8.77
2022-09-25T12:00:39.033Z,10.02
2022-09-25T12:03:24.611Z,10.05
2022-09-25T12:06:06.379Z,11.45
2022-09-25T12:08:50.372Z,12.35
2022-09-25T12:11:25.437Z,11.88
2022-09-25T12:14:01.562Z,12.13
2022-09-25T12:16:42.022Z,12.95
2022-09-25T12:19:35.483Z,13.15
2022-09-25T12:22:11.256Z,11.45
2022-09-25T12:25:01.079Z,10.68
2022-09-25T12:27:43.244Z,10.23
2022-09-25T12:30:21.432Z,10.63
2022-09-25T12:33:08.662Z,10.38
2022-09-25T12:35:55.886Z,11.07
2022-09-25T12:38:39.068Z,11.48
2022-09-25T12:41:16.823Z,11.93
2022-09-25T12:43:52.141Z,12.52
2022-09-25T12:46:27.682Z,12.60
2022-09-25T12:49:04.691Z,11.93
2022-09-25T12:51:42.501Z,10.95
2022-09-25T12:54:23.181Z,11.85
2022-09-25T12:56:57.139Z,11.75
2022-09-25T12:59:33.941Z,12.45
2022-09-25T13:02:13.209Z,12.60
2022-09-25T13:05:00.781Z,11.48
2022-09-25T13:07:38.714Z,11.57
2022-09-25T13:10:21.634Z,14.50
2022-09-25T13:12:52.726Z,13.20
2022-09-25T13:15:29.110Z,12.65
2022-09-25T13:18:02.243Z,12.90
2022-09-25T13:21:01.019Z,13.30
2022-09-25T13:23:37.059Z,14.98
2022-09-25T13:26:14.462Z,12.38
2022-09-25T13:28:54.881Z,12.65
2022-09-25T13:31:27.312Z,13.00
2022-09-25T13:34:05.518Z,12.55
2022-09-25T13:36:39.051Z,12.52
2022-09-25T13:39:36.462Z,12.15
2022-09-25T13:42:10.023Z,13.40
2022-09-25T13:44:59.060Z,11.48
2022-09-25T13:48:21.133Z,11.57
2022-09-25T13:50:57.804Z,11.52
2022-09-25T13:53:34.949Z,11.30
2022-09-25T13:56:32.518Z,13.45
2022-09-25T13:59:21.423Z,12.15
2022-09-25T14:01:53.971Z,10.15
2022-09-25T14:04:29.800Z,10.88
2022-09-25T14:07:06.724Z,12.15
2022-09-25T14:09:36.984Z,9.77
2022-09-25T14:12:12.774Z,8.50
2022-09-25T14:14:53.082Z,8.82
2022-09-25T14:17:23.544Z,6.40
2022-09-25T14:19:56.776Z,6.15
2022-09-25T14:22:39.261Z,5.20
2022-09-25T14:25:26.263Z,5.17
2022-09-25T14:27:55.472Z,4.85
2022-09-25T14:30:29.740Z,4.15
2022-09-25T14:33:18.606Z,3.47
2022-09-25T14:35:55.757Z,3.63
2022-09-25T14:38:53.510Z,3.33
2022-09-25T14:42:03.354Z,2.97
2022-09-25T14:44:50.527Z,2.78
2022-09-25T14:47:22.583Z,2.72
2022-09-25T14:49:54.433Z,2.80
2022-09-25T14:52:28.678Z,2.70
2022-09-25T14:55:01.817Z,3.17
2022-09-25T15:00:09.372Z,2.67
2022-09-25T15:02:43.645Z,4.22
2022-09-25T15:05:33.103Z,3.22
2022-09-25T15:08:12.095Z,2.88
2022-09-25T15:10:44.167Z,2.85
2022-09-25T15:13:17.495Z,2.92
2022-09-25T15:16:12.903Z,3.00
2022-09-25T15:18:51.070Z,3.70
2022-09-25T15:21:29.270Z,3.00
2022-09-25T15:24:05.522Z,3.03
2022-09-25T15:26:36.644Z,3.50
2022-09-25T15:29:22.112Z,2.90
2022-09-25T15:31:54.564Z,3.45
2022-09-25T15:34:26.284Z,3.05
2022-09-25T15:36:55.278Z,2.60
2022-09-25T15:39:30.497Z,2.35
2022-09-25T15:41:59.700Z,2.53
2022-09-25T15:44:28.237Z,2.58
2022-09-25T15:46:59.394Z,2.60
2022-09-25T15:49:38.270Z,2.45
2022-09-25T15:52:19.374Z,2.33
2022-09-25T15:54:50.579Z,2.20
2022-09-25T15:57:27.000Z,2.50
2022-09-25T16:00:13.163Z,3.10
2022-09-25T16:03:05.985Z,2.30
2022-09-25T16:05:39.406Z,1.90
2022-09-25T16:08:21.054Z,2.58
2022-09-25T16:10:50.342Z,2.03
2022-09-25T16:13:23.678Z,1.70
2022-09-25T16:15:53.927Z,1.50
2022-09-25T16:18:34.340Z,1.90
2022-09-25T16:21:17.425Z,1.70
2022-09-25T16:23:55.718Z,2.22
2022-09-25T16:26:27.191Z,1.92
2022-09-25T16:29:03.157Z,2.22
2022-09-25T16:31:32.124Z,2.22
2022-09-25T16:34:01.481Z,2.13
2022-09-25T16:36:40.948Z,2.15
2022-09-25T16:39:28.172Z,2.20
2022-09-25T16:41:59.992Z,2.10
2022-09-25T16:44:50.112Z,2.95
2022-09-25T16:47:23.135Z,2.30
2022-09-25T16:49:52.317Z,2.75
2022-09-25T16:52:28.563Z,2.40
2022-09-25T16:55:00.950Z,2.45
2022-09-25T16:57:31.187Z,2.55
2022-09-25T17:00:01.909Z,2.58
2022-09-25T17:02:36.641Z,2.85
2022-09-25T17:05:10.512Z,2.53
2022-09-25T17:07:40.238Z,2.40
2022-09-25T17:10:17.219Z,2.80
2022-09-25T17:12:53.325Z,2.55
2022-09-25T17:15:24.845Z,2.58
2022-09-25T17:17:55.884Z,2.90
2022-09-25T17:20:28.231Z,2.72
2022-09-25T17:23:00.327Z,3.13
2022-09-25T17:25:41.047Z,2.70
2022-09-25T17:28:11.818Z,3.70
2022-09-25T17:30:43.730Z,8.82
2022-09-25T17:33:16.869Z,15.20
2022-09-25T17:38:20.393Z,7.93
2022-09-25T17:40:53.058Z,5.57
2022-09-25T17:43:21.787Z,4.45
2022-09-25T17:45:52.769Z,4.63
2022-09-25T17:48:24.644Z,4.50
2022-09-25T17:50:54.230Z,3.78
2022-09-25T17:53:25.896Z,3.97
2022-09-25T17:55:54.256Z,3.80
2022-09-25T17:58:24.495Z,3.60
2022-09-25T18:00:53.951Z,4.75
2022-09-25T18:03:23.388Z,3.90
2022-09-25T18:05:51.669Z,3.95
2022-09-25T18:08:19.967Z,3.80
2022-09-25T18:10:52.759Z,4.30
2022-09-25T18:13:25.307Z,4.00
2022-09-25T18:15:58.547Z,4.13
2022-09-25T18:18:48.070Z,5.40
2022-09-25T18:21:34.301Z,3.47
2022-09-25T18:24:04.249Z,3.15
2022-09-25T18:26:35.276Z,2.95
2022-09-25T18:29:03.443Z,3.67
2022-09-25T18:31:31.654Z,3.75
2022-09-25T18:33:59.829Z,3.70
2022-09-25T18:36:30.672Z,3.22
2022-09-25T18:38:59.165Z,3.45
2022-09-25T18:41:27.882Z,3.28
2022-09-25T18:43:57.835Z,3.28
2022-09-25T18:46:26.142Z,3.45
2022-09-25T18:48:56.020Z,3.10
2022-09-25T18:51:24.136Z,3.35
2022-09-25T18:53:54.324Z,3.13
2022-09-25T18:56:22.595Z,3.65
2022-09-25T18:58:52.766Z,3.17
2022-09-25T19:01:22.383Z,4.10
2022-09-25T19:03:53.361Z,5.18
2022-09-25T19:06:22.203Z,3.72
2022-09-25T19:08:56.409Z,2.97
2022-09-25T19:11:26.644Z,3.38
2022-09-25T19:13:57.904Z,2.88
2022-09-25T19:16:28.242Z,2.88
2022-09-25T19:18:58.859Z,3.05
2022-09-25T19:21:27.766Z,2.63
2022-09-25T19:23:58.173Z,4.55
2022-09-25T19:26:26.936Z,4.05
2022-09-25T19:28:57.140Z,4.38
2022-09-25T19:31:28.415Z,4.78
2022-09-25T19:34:00.901Z,5.05
2022-09-25T19:36:32.564Z,4.82
2022-09-25T19:39:01.576Z,3.83
2022-09-25T19:41:35.671Z,4.32
2022-09-25T19:44:12.949Z,4.20
2022-09-25T19:46:43.413Z,4.75
2022-09-25T19:49:13.937Z,4.40
2022-09-25T19:51:43.238Z,4.30
2022-09-25T19:54:15.443Z,4.07
2022-09-25T19:56:46.606Z,3.70
2022-09-25T19:59:18.203Z,3.78
2022-09-25T20:01:51.262Z,3.63
2022-09-25T20:06:48.914Z,4.40
2022-09-25T20:09:24.702Z,4.03
2022-09-25T20:11:53.428Z,4.03
2022-09-25T20:14:26.811Z,4.20
2022-09-25T20:16:56.514Z,4.53
2022-09-25T20:19:27.445Z,4.78
2022-09-25T20:21:57.465Z,4.72
2022-09-25T20:24:26.871Z,4.88
2022-09-25T20:26:55.645Z,4.07
2022-09-25T20:29:24.232Z,4.25
2022-09-25T20:31:59.480Z,4.10
2022-09-25T20:34:30.776Z,4.47
2022-09-25T20:37:00.023Z,4.13
2022-09-25T20:39:34.568Z,4.18
2022-09-25T20:42:07.794Z,3.85
2022-09-25T20:44:36.367Z,3.30
2022-09-25T20:47:09.104Z,4.00
2022-09-25T20:49:41.847Z,4.38
2022-09-25T20:52:15.684Z,3.70
2022-09-25T20:54:55.129Z,3.55
2022-09-25T20:57:26.164Z,3.85
2022-09-25T20:59:58.452Z,3.92
2022-09-25T21:02:37.313Z,3.90
2022-09-25T21:05:09.381Z,4.82
2022-09-25T21:07:41.340Z,3.67
2022-09-25T21:10:12.261Z,4.30
2022-09-25T21:12:41.279Z,4.00
2022-09-25T21:15:11.593Z,3.85
2022-09-25T21:17:42.571Z,4.00
2022-09-25T21:20:12.776Z,3.88
2022-09-25T21:22:51.420Z,4.13
2022-09-25T21:25:20.681Z,4.00
2022-09-25T21:27:52.096Z,3.58
2022-09-25T21:30:21.780Z,4.05
2022-09-25T21:32:56.293Z,4.00
2022-09-25T21:35:27.840Z,4.15
2022-09-25T21:37:59.949Z,4.00
2022-09-25T21:40:28.872Z,3.75
2022-09-25T21:43:03.532Z,5.03
2022-09-25T21:45:33.555Z,4.45
2022-09-25T21:48:18.507Z,4.03
2022-09-25T21:50:55.649Z,4.15
2022-09-25T21:53:25.595Z,4.30
2022-09-25T21:56:02.609Z,4.55
2022-09-25T21:58:36.191Z,4.07
2022-09-25T22:01:12.475Z,4.97
2022-09-25T22:04:03.533Z,4.20
2022-09-25T22:06:37.706Z,4.72
2022-09-25T22:12:02.419Z,4.25
2022-09-25T22:14:33.239Z,4.22
2022-09-25T22:17:03.754Z,4.25
2022-09-25T22:19:36.762Z,4.80
2022-09-25T22:22:10.548Z,4.65
2022-09-25T22:24:39.098Z,5.07
2022-09-25T22:27:10.601Z,4.78
2022-09-25T22:29:39.865Z,4.75
2022-09-25T22:32:08.786Z,4.82
2022-09-25T22:34:40.910Z,5.20
2022-09-25T22:37:10.170Z,5.43
2022-09-25T22:39:39.583Z,5.38
2022-09-25T22:42:09.960Z,4.88
2022-09-25T22:44:42.734Z,5.00
2022-09-25T22:47:23.996Z,4.85
2022-09-25T22:49:54.819Z,4.72
2022-09-25T22:52:24.247Z,4.70
2022-09-25T22:54:56.222Z,5.38
2022-09-25T22:57:25.411Z,4.72
2022-09-25T22:59:54.644Z,4.97
2022-09-25T23:02:25.088Z,5.00
2022-09-25T23:04:54.681Z,4.75
2022-09-25T23:07:23.328Z,4.80
2022-09-25T23:09:58.249Z,5.35
2022-09-25T23:12:30.539Z,4.90
2022-09-25T23:15:13.468Z,5.40
2022-09-25T23:17:44.737Z,5.72
2022-09-25T23:20:15.990Z,5.18
2022-09-25T23:22:44.960Z,4.95
2022-09-25T23:25:18.061Z,4.93
2022-09-25T23:30:19.868Z,5.35
2022-09-25T23:32:52.870Z,6.93
2022-09-25T23:37:53.123Z,5.00
2022-09-25T23:40:24.158Z,5.38
2022-09-25T23:42:54.064Z,4.85
2022-09-25T23:45:25.936Z,5.07
2022-09-25T23:47:54.432Z,5.57
2022-09-25T23:50:24.187Z,5.10
2022-09-25T23:52:53.579Z,5.53
2022-09-25T23:55:25.884Z,5.97
2022-09-25T23:57:54.802Z,6.07
